sensor_id;sensor_type;location;lat;lon;timestamp;pressure;altitude;pressure_sealevel;temperature;humidity
28004;BME280;15330;51.234;6.754;2023-02-28T00:00:20;102512.16;;;2.46;71.75
28004;BME280;15330;51.234;6.754;2023-02-28T00:02:46;102495.69;;;2.20;72.56
28004;BME280;15330;51.234;6.754;2023-02-28T00:05:16;102503.63;;;2.00;72.66
28004;BME280;15330;51.234;6.754;2023-02-28T00:07:42;102495.25;;;2.11;72.49
28004;BME280;15330;51.234;6.754;2023-02-28T00:10:10;102502.94;;;2.36;72.57
28004;BME280;15330;51.234;6.754;2023-02-28T00:12:36;102503.19;;;2.30;72.45
28004;BME280;15330;51.234;6.754;2023-02-28T00:15:05;102497.38;;;2.42;72.33
28004;BME280;15330;51.234;6.754;2023-02-28T00:17:31;102497.66;;;2.36;72.07
28004;BME280;15330;51.234;6.754;2023-02-28T00:19:57;102501.59;;;2.27;72.14
28004;BME280;15330;51.234;6.754;2023-02-28T00:22:26;102502.50;;;2.26;72.08
28004;BME280;15330;51.234;6.754;2023-02-28T00:24:52;102506.13;;;2.24;72.49
28004;BME280;15330;51.234;6.754;2023-02-28T00:27:17;102503.19;;;2.30;72.16
28004;BME280;15330;51.234;6.754;2023-02-28T00:29:43;102508.16;;;2.37;72.70
28004;BME280;15330;51.234;6.754;2023-02-28T00:32:08;102500.94;;;2.41;72.27
28004;BME280;15330;51.234;6.754;2023-02-28T00:34:33;102505.47;;;2.18;72.46
28004;BME280;15330;51.234;6.754;2023-02-28T00:37:07;102500.19;;;2.18;73.16
28004;BME280;15330;51.234;6.754;2023-02-28T00:39:37;102507.47;;;2.13;73.46
28004;BME280;15330;51.234;6.754;2023-02-28T00:42:03;102509.34;;;2.30;72.75
28004;BME280;15330;51.234;6.754;2023-02-28T00:44:30;102502.81;;;2.39;71.97
28004;BME280;15330;51.234;6.754;2023-02-28T00:46:56;102506.88;;;2.27;72.47
28004;BME280;15330;51.234;6.754;2023-02-28T00:49:22;102496.91;;;2.13;73.90
28004;BME280;15330;51.234;6.754;2023-02-28T00:51:48;102498.88;;;2.08;73.17
28004;BME280;15330;51.234;6.754;2023-02-28T00:54:13;102495.25;;;2.11;73.82
28004;BME280;15330;51.234;6.754;2023-02-28T00:56:38;102495.44;;;2.27;73.69
28004;BME280;15330;51.234;6.754;2023-02-28T00:59:04;102493.59;;;2.08;74.26
28004;BME280;15330;51.234;6.754;2023-02-28T01:01:29;102497.66;;;2.36;72.57
28004;BME280;15330;51.234;6.754;2023-02-28T01:03:55;102506.06;;;2.25;73.37
28004;BME280;15330;51.234;6.754;2023-02-28T01:06:20;102500.25;;;2.37;72.86
28004;BME280;15330;51.234;6.754;2023-02-28T01:08:46;102505.28;;;2.42;72.83
28004;BME280;15330;51.234;6.754;2023-02-28T01:11:13;102500.44;;;2.33;73.21
28004;BME280;15330;51.234;6.754;2023-02-28T01:13:40;102500.81;;;2.44;72.75
28004;BME280;15330;51.234;6.754;2023-02-28T01:16:06;102504.19;;;2.47;72.97
28004;BME280;15330;51.234;6.754;2023-02-28T01:18:31;102498.97;;;2.46;71.91
28004;BME280;15330;51.234;6.754;2023-02-28T01:20:57;102509.16;;;2.53;71.52
28004;BME280;15330;51.234;6.754;2023-02-28T01:23:22;102506.06;;;2.25;72.45
28004;BME280;15330;51.234;6.754;2023-02-28T01:25:51;102501.38;;;2.11;73.79
28004;BME280;15330;51.234;6.754;2023-02-28T01:28:17;102508.34;;;2.33;72.53
28004;BME280;15330;51.234;6.754;2023-02-28T01:30:42;102499.03;;;2.05;74.18
28004;BME280;15330;51.234;6.754;2023-02-28T01:33:08;102498.75;;;2.11;74.11
28004;BME280;15330;51.234;6.754;2023-02-28T01:35:34;102498.50;;;2.17;74.28
28004;BME280;15330;51.234;6.754;2023-02-28T01:38:00;102502.97;;;2.15;74.81
28004;BME280;15330;51.234;6.754;2023-02-28T01:40:25;102496.31;;;2.07;74.81
28004;BME280;15330;51.234;6.754;2023-02-28T01:42:50;102500.28;;;2.17;74.31
28004;BME280;15330;51.234;6.754;2023-02-28T01:45:26;102499.25;;;2.19;74.81
28004;BME280;15330;51.234;6.754;2023-02-28T01:47:55;102505.16;;;2.06;74.60
28004;BME280;15330;51.234;6.754;2023-02-28T01:50:26;102497.31;;;2.04;74.94
28004;BME280;15330;51.234;6.754;2023-02-28T01:52:55;102500.81;;;2.05;75.07
28004;BME280;15330;51.234;6.754;2023-02-28T01:55:24;102498.56;;;1.96;74.99
28004;BME280;15330;51.234;6.754;2023-02-28T01:57:57;102502.53;;;1.65;76.85
28004;BME280;15330;51.234;6.754;2023-02-28T02:00:26;102497.78;;;1.31;77.94
28004;BME280;15330;51.234;6.754;2023-02-28T02:02:58;102498.47;;;1.57;77.44
28004;BME280;15330;51.234;6.754;2023-02-28T02:05:27;102491.06;;;1.24;78.64
28004;BME280;15330;51.234;6.754;2023-02-28T02:08:05;102493.00;;;1.41;78.75
28004;BME280;15330;51.234;6.754;2023-02-28T02:10:35;102495.03;;;1.34;79.04
28004;BME280;15330;51.234;6.754;2023-02-28T02:13:33;102490.19;;;1.24;78.60
28004;BME280;15330;51.234;6.754;2023-02-28T02:18:53;102487.19;;;1.11;79.07
28004;BME280;15330;51.234;6.754;2023-02-28T02:24:33;102491.97;;;1.01;80.44
28004;BME280;15330;51.234;6.754;2023-02-28T02:27:24;102487.91;;;1.15;79.69
28004;BME280;15330;51.234;6.754;2023-02-28T02:38:06;102475.97;;;1.06;79.98
28004;BME280;15330;51.234;6.754;2023-02-28T02:43:43;102476.34;;;0.97;80.67
28004;BME280;15330;51.234;6.754;2023-02-28T02:46:16;102464.72;;;1.02;80.34
28004;BME280;15330;51.234;6.754;2023-02-28T02:48:45;102460.72;;;1.14;80.07
28004;BME280;15330;51.234;6.754;2023-02-28T02:51:14;102458.09;;;1.14;80.29
28004;BME280;15330;51.234;6.754;2023-02-28T02:53:51;102462.19;;;1.21;80.01
28004;BME280;15330;51.234;6.754;2023-02-28T02:56:22;102460.97;;;1.08;80.35
28004;BME280;15330;51.234;6.754;2023-02-28T02:58:50;102462.97;;;1.23;79.62
28004;BME280;15330;51.234;6.754;2023-02-28T03:01:23;102463.53;;;1.09;80.45
28004;BME280;15330;51.234;6.754;2023-02-28T03:03:59;102468.53;;;0.94;81.02
28004;BME280;15330;51.234;6.754;2023-02-28T03:06:26;102458.88;;;0.94;81.63
28004;BME280;15330;51.234;6.754;2023-02-28T03:08:52;102470.22;;;0.96;81.49
28004;BME280;15330;51.234;6.754;2023-02-28T03:11:18;102470.56;;;0.87;81.90
28004;BME280;15330;51.234;6.754;2023-02-28T03:16:34;102464.25;;;0.69;82.46
28004;BME280;15330;51.234;6.754;2023-02-28T03:24:55;102471.38;;;0.44;83.65
28004;BME280;15330;51.234;6.754;2023-02-28T03:27:27;102473.13;;;0.44;83.95
28004;BME280;15330;51.234;6.754;2023-02-28T03:30:02;102471.94;;;0.06;84.67
28004;BME280;15330;51.234;6.754;2023-02-28T03:32:40;102460.03;;;0.42;84.00
28004;BME280;15330;51.234;6.754;2023-02-28T03:35:14;102455.06;;;0.58;82.87
28004;BME280;15330;51.234;6.754;2023-02-28T03:37:48;102457.94;;;0.28;84.17
28004;BME280;15330;51.234;6.754;2023-02-28T03:40:19;102461.44;;;0.29;83.39
28004;BME280;15330;51.234;6.754;2023-02-28T03:42:49;102464.72;;;0.11;84.56
28004;BME280;15330;51.234;6.754;2023-02-28T03:45:18;102465.22;;;-0.03;85.05
28004;BME280;15330;51.234;6.754;2023-02-28T03:50:41;102461.75;;;-0.04;85.30
28004;BME280;15330;51.234;6.754;2023-02-28T03:53:16;102471.69;;;0.12;84.61
28004;BME280;15330;51.234;6.754;2023-02-28T03:55:49;102469.81;;;0.15;85.04
28004;BME280;15330;51.234;6.754;2023-02-28T04:01:07;102469.97;;;0.11;84.98
28004;BME280;15330;51.234;6.754;2023-02-28T04:03:36;102471.59;;;0.15;84.26
28004;BME280;15330;51.234;6.754;2023-02-28T04:06:02;102474.59;;;0.29;83.35
28004;BME280;15330;51.234;6.754;2023-02-28T04:08:28;102473.81;;;0.02;84.48
28004;BME280;15330;51.234;6.754;2023-02-28T04:11:04;102476.28;;;0.07;84.92
28004;BME280;15330;51.234;6.754;2023-02-28T04:13:31;102471.41;;;0.43;82.87
28004;BME280;15330;51.234;6.754;2023-02-28T04:15:57;102487.75;;;0.29;82.99
28004;BME280;15330;51.234;6.754;2023-02-28T04:18:22;102476.78;;;0.41;82.18
28004;BME280;15330;51.234;6.754;2023-02-28T04:20:48;102477.22;;;0.29;82.50
28004;BME280;15330;51.234;6.754;2023-02-28T04:23:13;102472.63;;;0.34;83.20
28004;BME280;15330;51.234;6.754;2023-02-28T04:25:38;102479.16;;;0.47;82.62
28004;BME280;15330;51.234;6.754;2023-02-28T04:28:05;102482.28;;;0.33;82.57
28004;BME280;15330;51.234;6.754;2023-02-28T04:30:31;102476.81;;;0.40;82.91
28004;BME280;15330;51.234;6.754;2023-02-28T04:32:58;102474.06;;;0.43;82.43
28004;BME280;15330;51.234;6.754;2023-02-28T04:35:23;102483.34;;;0.29;82.42
28004;BME280;15330;51.234;6.754;2023-02-28T04:37:49;102484.69;;;-0.09;83.53
28004;BME280;15330;51.234;6.754;2023-02-28T04:40:14;102485.56;;;-0.08;83.49
28004;BME280;15330;51.234;6.754;2023-02-28T04:42:39;102489.19;;;0.13;83.15
28004;BME280;15330;51.234;6.754;2023-02-28T04:45:05;102483.09;;;0.35;81.27
28004;BME280;15330;51.234;6.754;2023-02-28T04:47:31;102487.91;;;0.24;81.50
28004;BME280;15330;51.234;6.754;2023-02-28T04:49:56;102489.63;;;0.25;81.21
28004;BME280;15330;51.234;6.754;2023-02-28T04:52:22;102488.09;;;0.20;80.84
28004;BME280;15330;51.234;6.754;2023-02-28T04:54:47;102488.09;;;0.20;80.97
28004;BME280;15330;51.234;6.754;2023-02-28T04:57:13;102496.44;;;0.31;80.35
28004;BME280;15330;51.234;6.754;2023-02-28T04:59:38;102491.41;;;0.25;79.41
28004;BME280;15330;51.234;6.754;2023-02-28T05:02:04;102491.97;;;0.33;79.55
28004;BME280;15330;51.234;6.754;2023-02-28T05:04:35;102485.78;;;0.34;79.21
28004;BME280;15330;51.234;6.754;2023-02-28T05:07:01;102493.00;;;0.52;78.99
28004;BME280;15330;51.234;6.754;2023-02-28T05:09:26;102495.97;;;0.43;78.40
28004;BME280;15330;51.234;6.754;2023-02-28T05:11:53;102486.72;;;0.56;78.97
28004;BME280;15330;51.234;6.754;2023-02-28T05:14:18;102493.72;;;0.32;78.55
28004;BME280;15330;51.234;6.754;2023-02-28T05:16:44;102498.56;;;0.45;78.21
28004;BME280;15330;51.234;6.754;2023-02-28T05:19:09;102495.47;;;0.10;79.25
28004;BME280;15330;51.234;6.754;2023-02-28T05:21:48;102497.81;;;0.18;78.66
28004;BME280;15330;51.234;6.754;2023-02-28T05:24:14;102496.88;;;0.42;77.80
28004;BME280;15330;51.234;6.754;2023-02-28T05:26:41;102499.25;;;0.50;78.36
28004;BME280;15330;51.234;6.754;2023-02-28T05:29:07;102496.63;;;0.50;78.69
28004;BME280;15330;51.234;6.754;2023-02-28T05:31:34;102503.34;;;0.33;79.82
28004;BME280;15330;51.234;6.754;2023-02-28T05:33:59;102505.13;;;0.10;80.31
28004;BME280;15330;51.234;6.754;2023-02-28T05:36:25;102504.06;;;0.14;81.07
28004;BME280;15330;51.234;6.754;2023-02-28T05:38:51;102512.28;;;0.29;82.07
28004;BME280;15330;51.234;6.754;2023-02-28T05:41:17;102506.84;;;0.34;80.95
28004;BME280;15330;51.234;6.754;2023-02-28T05:43:44;102509.38;;;0.37;80.58
28004;BME280;15330;51.234;6.754;2023-02-28T05:46:12;102512.44;;;0.25;80.38
28004;BME280;15330;51.234;6.754;2023-02-28T05:48:39;102508.34;;;0.18;80.89
28004;BME280;15330;51.234;6.754;2023-02-28T05:51:06;102516.50;;;0.10;81.39
28004;BME280;15330;51.234;6.754;2023-02-28T05:53:32;102511.28;;;0.32;80.67
28004;BME280;15330;51.234;6.754;2023-02-28T05:55:57;102518.94;;;0.15;80.98
28004;BME280;15330;51.234;6.754;2023-02-28T05:58:23;102518.09;;;0.14;82.84
28004;BME280;15330;51.234;6.754;2023-02-28T06:00:50;102521.97;;;0.04;82.20
28004;BME280;15330;51.234;6.754;2023-02-28T06:03:16;102524.69;;;0.01;81.26
28004;BME280;15330;51.234;6.754;2023-02-28T06:05:41;102519.03;;;-0.12;80.87
28004;BME280;15330;51.234;6.754;2023-02-28T06:08:07;102525.28;;;-0.16;81.83
28004;BME280;15330;51.234;6.754;2023-02-28T06:10:35;102523.84;;;0.00;80.72
28004;BME280;15330;51.234;6.754;2023-02-28T06:13:01;102519.59;;;-0.04;80.52
28004;BME280;15330;51.234;6.754;2023-02-28T06:15:29;102529.69;;;-0.16;80.37
28004;BME280;15330;51.234;6.754;2023-02-28T06:17:56;102534.09;;;-0.17;80.17
28004;BME280;15330;51.234;6.754;2023-02-28T06:20:21;102535.75;;;-0.14;81.72
28004;BME280;15330;51.234;6.754;2023-02-28T06:22:47;102536.03;;;0.03;81.67
28004;BME280;15330;51.234;6.754;2023-02-28T06:25:12;102542.88;;;0.09;81.45
28004;BME280;15330;51.234;6.754;2023-02-28T06:27:38;102533.75;;;-0.32;79.47
28004;BME280;15330;51.234;6.754;2023-02-28T06:30:03;102535.47;;;-0.31;78.95
28004;BME280;15330;51.234;6.754;2023-02-28T06:32:29;102544.88;;;-0.24;78.47
28004;BME280;15330;51.234;6.754;2023-02-28T06:34:54;102542.19;;;0.02;77.12
28004;BME280;15330;51.234;6.754;2023-02-28T06:37:22;102547.00;;;0.16;76.41
28004;BME280;15330;51.234;6.754;2023-02-28T06:39:51;102542.47;;;-0.06;76.57
28004;BME280;15330;51.234;6.754;2023-02-28T06:42:17;102546.00;;;-0.07;76.21
28004;BME280;15330;51.234;6.754;2023-02-28T06:44:42;102541.78;;;-0.11;76.23
28004;BME280;15330;51.234;6.754;2023-02-28T06:47:08;102546.47;;;0.06;76.68
28004;BME280;15330;51.234;6.754;2023-02-28T06:49:35;102555.75;;;0.41;76.16
28004;BME280;15330;51.234;6.754;2023-02-28T06:52:00;102555.66;;;0.19;75.64
28004;BME280;15330;51.234;6.754;2023-02-28T06:54:26;102563.88;;;0.33;74.69
28004;BME280;15330;51.234;6.754;2023-02-28T06:56:52;102562.22;;;0.79;72.55
28004;BME280;15330;51.234;6.754;2023-02-28T06:59:19;102556.75;;;1.07;71.97
28004;BME280;15330;51.234;6.754;2023-02-28T07:01:45;102554.19;;;1.49;71.17
28004;BME280;15330;51.234;6.754;2023-02-28T07:04:11;102558.06;;;1.82;68.42
28004;BME280;15330;51.234;6.754;2023-02-28T07:06:38;102574.69;;;2.84;65.73
28004;BME280;15330;51.234;6.754;2023-02-28T07:09:03;102560.97;;;4.03;61.37
28004;BME280;15330;51.234;6.754;2023-02-28T07:11:29;102560.28;;;4.98;58.63
28004;BME280;15330;51.234;6.754;2023-02-28T07:13:55;102560.22;;;5.77;55.10
28004;BME280;15330;51.234;6.754;2023-02-28T07:16:21;102559.47;;;5.59;54.19
28004;BME280;15330;51.234;6.754;2023-02-28T07:18:47;102563.09;;;5.27;54.63
28004;BME280;15330;51.234;6.754;2023-02-28T07:21:14;102556.03;;;6.03;52.19
28004;BME280;15330;51.234;6.754;2023-02-28T07:23:40;102557.91;;;6.87;51.67
28004;BME280;15330;51.234;6.754;2023-02-28T07:26:10;102554.06;;;7.73;48.12
28004;BME280;15330;51.234;6.754;2023-02-28T07:28:36;102554.97;;;8.12;45.98
28004;BME280;15330;51.234;6.754;2023-02-28T07:31:05;102566.56;;;8.51;45.23
28004;BME280;15330;51.234;6.754;2023-02-28T07:33:31;102561.22;;;7.86;45.50
28004;BME280;15330;51.234;6.754;2023-02-28T07:36:05;102550.22;;;9.53;42.21
28004;BME280;15330;51.234;6.754;2023-02-28T07:38:34;102557.16;;;8.70;42.23
28004;BME280;15330;51.234;6.754;2023-02-28T07:41:01;102564.44;;;8.68;43.93
28004;BME280;15330;51.234;6.754;2023-02-28T07:43:30;102565.81;;;9.94;41.10
28004;BME280;15330;51.234;6.754;2023-02-28T07:46:08;102569.19;;;9.25;39.95
28004;BME280;15330;51.234;6.754;2023-02-28T07:48:34;102566.81;;;10.05;39.29
28004;BME280;15330;51.234;6.754;2023-02-28T07:50:59;102566.47;;;11.00;39.37
28004;BME280;15330;51.234;6.754;2023-02-28T07:53:26;102571.19;;;11.19;37.61
28004;BME280;15330;51.234;6.754;2023-02-28T07:55:56;102575.81;;;12.03;36.97
28004;BME280;15330;51.234;6.754;2023-02-28T07:58:23;102567.25;;;11.77;34.63
28004;BME280;15330;51.234;6.754;2023-02-28T08:00:49;102563.19;;;7.96;37.96
28004;BME280;15330;51.234;6.754;2023-02-28T08:03:18;102571.09;;;9.12;36.42
28004;BME280;15330;51.234;6.754;2023-02-28T08:05:44;102574.16;;;7.65;38.17
28004;BME280;15330;51.234;6.754;2023-02-28T08:08:10;102578.16;;;7.45;39.88
28004;BME280;15330;51.234;6.754;2023-02-28T08:10:36;102582.44;;;8.90;38.44
28004;BME280;15330;51.234;6.754;2023-02-28T08:13:01;102573.72;;;9.48;35.06
28004;BME280;15330;51.234;6.754;2023-02-28T08:15:27;102577.47;;;9.93;35.00
28004;BME280;15330;51.234;6.754;2023-02-28T08:17:52;102579.78;;;8.65;37.37
28004;BME280;15330;51.234;6.754;2023-02-28T08:20:17;102575.38;;;9.86;35.37
28004;BME280;15330;51.234;6.754;2023-02-28T08:22:43;102575.09;;;10.92;33.55
28004;BME280;15330;51.234;6.754;2023-02-28T08:25:09;102572.47;;;11.35;33.45
28004;BME280;15330;51.234;6.754;2023-02-28T08:27:35;102578.88;;;10.68;32.74
28004;BME280;15330;51.234;6.754;2023-02-28T08:30:01;102575.38;;;11.87;32.46
28004;BME280;15330;51.234;6.754;2023-02-28T08:32:26;102583.84;;;10.83;31.73
28004;BME280;15330;51.234;6.754;2023-02-28T08:34:52;102587.78;;;9.63;31.95
28004;BME280;15330;51.234;6.754;2023-02-28T08:37:17;102576.66;;;12.45;31.22
28004;BME280;15330;51.234;6.754;2023-02-28T08:39:42;102581.75;;;12.78;29.20
28004;BME280;15330;51.234;6.754;2023-02-28T08:42:08;102576.97;;;11.89;30.29
28004;BME280;15330;51.234;6.754;2023-02-28T08:44:33;102573.47;;;12.91;28.96
28004;BME280;15330;51.234;6.754;2023-02-28T08:46:59;102598.47;;;8.13;33.25
28004;BME280;15330;51.234;6.754;2023-02-28T08:49:24;102579.69;;;8.79;33.49
28004;BME280;15330;51.234;6.754;2023-02-28T08:51:50;102573.25;;;10.37;31.44
28004;BME280;15330;51.234;6.754;2023-02-28T08:54:15;102585.72;;;9.43;31.40
28004;BME280;15330;51.234;6.754;2023-02-28T08:56:45;102578.16;;;11.53;30.52
28004;BME280;15330;51.234;6.754;2023-02-28T08:59:12;102573.53;;;13.10;28.01
28004;BME280;15330;51.234;6.754;2023-02-28T09:01:37;102580.34;;;12.74;28.31
28004;BME280;15330;51.234;6.754;2023-02-28T09:04:02;102571.34;;;11.92;28.45
28004;BME280;15330;51.234;6.754;2023-02-28T09:06:28;102574.25;;;12.42;28.75
28004;BME280;15330;51.234;6.754;2023-02-28T09:08:56;102572.25;;;11.82;29.04
28004;BME280;15330;51.234;6.754;2023-02-28T09:11:24;102574.91;;;9.20;30.67
28004;BME280;15330;51.234;6.754;2023-02-28T09:13:49;102569.88;;;9.87;32.33
28004;BME280;15330;51.234;6.754;2023-02-28T09:16:16;102561.25;;;12.47;28.43
28004;BME280;15330;51.234;6.754;2023-02-28T09:18:42;102571.88;;;9.97;29.84
28004;BME280;15330;51.234;6.754;2023-02-28T09:21:09;102568.16;;;10.56;29.38
28004;BME280;15330;51.234;6.754;2023-02-28T09:23:36;102564.72;;;10.43;30.53
28004;BME280;15330;51.234;6.754;2023-02-28T09:26:03;102565.34;;;10.12;31.27
28004;BME280;15330;51.234;6.754;2023-02-28T09:28:29;102559.63;;;9.46;31.39
28004;BME280;15330;51.234;6.754;2023-02-28T09:30:54;102553.56;;;13.43;27.53
28004;BME280;15330;51.234;6.754;2023-02-28T09:33:21;102554.44;;;13.92;26.92
28004;BME280;15330;51.234;6.754;2023-02-28T09:35:51;102556.13;;;13.93;27.43
28004;BME280;15330;51.234;6.754;2023-02-28T09:38:22;102552.09;;;14.55;24.96
28004;BME280;15330;51.234;6.754;2023-02-28T09:40:53;102555.50;;;12.52;26.38
28004;BME280;15330;51.234;6.754;2023-02-28T09:43:23;102559.09;;;11.24;29.45
28004;BME280;15330;51.234;6.754;2023-02-28T09:48:46;102558.25;;;12.40;28.17
28004;BME280;15330;51.234;6.754;2023-02-28T09:54:20;102551.59;;;8.86;30.89
28004;BME280;15330;51.234;6.754;2023-02-28T09:56:50;102550.56;;;10.19;31.65
28004;BME280;15330;51.234;6.754;2023-02-28T10:05:18;102568.53;;;10.96;29.57
28004;BME280;15330;51.234;6.754;2023-02-28T10:10:22;102558.72;;;7.16;36.14
28004;BME280;15330;51.234;6.754;2023-02-28T10:12:53;102561.44;;;5.40;38.35
28004;BME280;15330;51.234;6.754;2023-02-28T10:15:21;102543.00;;;5.68;38.47
28004;BME280;15330;51.234;6.754;2023-02-28T10:17:54;102563.50;;;6.97;37.78
28004;BME280;15330;51.234;6.754;2023-02-28T10:20:23;102549.69;;;7.19;37.38
28004;BME280;15330;51.234;6.754;2023-02-28T10:23:16;102569.03;;;6.80;36.66
28004;BME280;15330;51.234;6.754;2023-02-28T10:25:45;102556.84;;;6.19;37.45
28004;BME280;15330;51.234;6.754;2023-02-28T10:28:15;102551.63;;;5.26;39.17
28004;BME280;15330;51.234;6.754;2023-02-28T10:30:48;102550.38;;;5.18;40.46
28004;BME280;15330;51.234;6.754;2023-02-28T10:33:25;102548.53;;;5.34;39.74
28004;BME280;15330;51.234;6.754;2023-02-28T10:35:53;102554.78;;;5.33;41.12
28004;BME280;15330;51.234;6.754;2023-02-28T10:38:28;102550.63;;;5.90;39.02
28004;BME280;15330;51.234;6.754;2023-02-28T10:41:11;102543.81;;;6.00;39.85
28004;BME280;15330;51.234;6.754;2023-02-28T10:43:39;102553.91;;;6.38;39.63
28004;BME280;15330;51.234;6.754;2023-02-28T10:48:34;102554.88;;;6.37;38.90
28004;BME280;15330;51.234;6.754;2023-02-28T10:51:01;102557.72;;;6.48;40.18
28004;BME280;15330;51.234;6.754;2023-02-28T10:53:52;102546.69;;;6.25;40.02
28004;BME280;15330;51.234;6.754;2023-02-28T10:56:20;102547.84;;;6.36;38.52
28004;BME280;15330;51.234;6.754;2023-02-28T11:01:42;102541.78;;;6.48;38.43
28004;BME280;15330;51.234;6.754;2023-02-28T11:04:31;102533.97;;;6.87;38.35
28004;BME280;15330;51.234;6.754;2023-02-28T11:07:17;102523.09;;;5.30;39.86
28004;BME280;15330;51.234;6.754;2023-02-28T11:09:49;102532.00;;;5.44;40.03
28004;BME280;15330;51.234;6.754;2023-02-28T11:12:37;102536.06;;;5.04;40.22
28004;BME280;15330;51.234;6.754;2023-02-28T11:15:22;102541.56;;;4.53;40.81
28004;BME280;15330;51.234;6.754;2023-02-28T11:17:58;102536.03;;;8.42;35.46
28004;BME280;15330;51.234;6.754;2023-02-28T11:20:28;102522.09;;;5.32;38.89
28004;BME280;15330;51.234;6.754;2023-02-28T11:22:56;102543.59;;;5.73;39.33
28004;BME280;15330;51.234;6.754;2023-02-28T11:25:25;102535.81;;;5.25;40.01
28004;BME280;15330;51.234;6.754;2023-02-28T11:27:56;102533.44;;;6.54;38.30
28004;BME280;15330;51.234;6.754;2023-02-28T11:32:59;102533.06;;;5.10;40.01
28004;BME280;15330;51.234;6.754;2023-02-28T11:35:38;102518.09;;;7.27;37.38
28004;BME280;15330;51.234;6.754;2023-02-28T11:38:09;102526.31;;;6.40;36.79
28004;BME280;15330;51.234;6.754;2023-02-28T11:40:46;102529.34;;;5.60;39.05
28004;BME280;15330;51.234;6.754;2023-02-28T11:43:36;102517.25;;;9.42;33.09
28004;BME280;15330;51.234;6.754;2023-02-28T11:49:18;102526.78;;;8.35;35.44
28004;BME280;15330;51.234;6.754;2023-02-28T11:52:03;102526.25;;;7.78;35.12
28004;BME280;15330;51.234;6.754;2023-02-28T12:00:54;102519.16;;;9.16;34.22
28004;BME280;15330;51.234;6.754;2023-02-28T12:16:58;102506.50;;;8.45;35.26
28004;BME280;15330;51.234;6.754;2023-02-28T12:22:42;102503.88;;;6.73;37.40
28004;BME280;15330;51.234;6.754;2023-02-28T12:27:40;102490.56;;;7.41;37.60
28004;BME280;15330;51.234;6.754;2023-02-28T12:30:21;102495.16;;;6.71;38.99
28004;BME280;15330;51.234;6.754;2023-02-28T12:33:17;102492.41;;;6.58;39.07
28004;BME280;15330;51.234;6.754;2023-02-28T12:35:52;102487.41;;;7.21;38.77
28004;BME280;15330;51.234;6.754;2023-02-28T12:38:41;102482.19;;;6.93;38.83
28004;BME280;15330;51.234;6.754;2023-02-28T12:41:22;102480.97;;;7.38;38.05
28004;BME280;15330;51.234;6.754;2023-02-28T12:44:02;102469.16;;;8.58;37.40
28004;BME280;15330;51.234;6.754;2023-02-28T12:46:33;102463.31;;;7.50;37.82
28004;BME280;15330;51.234;6.754;2023-02-28T12:49:10;102459.47;;;7.41;37.10
28004;BME280;15330;51.234;6.754;2023-02-28T12:51:38;102469.81;;;6.37;38.55
28004;BME280;15330;51.234;6.754;2023-02-28T12:56:42;102449.88;;;7.26;38.26
28004;BME280;15330;51.234;6.754;2023-02-28T12:59:24;102449.00;;;8.03;36.69
28004;BME280;15330;51.234;6.754;2023-02-28T13:02:09;102434.88;;;8.64;36.03
28004;BME280;15330;51.234;6.754;2023-02-28T13:05:08;102437.38;;;7.66;37.06
28004;BME280;15330;51.234;6.754;2023-02-28T13:10:41;102439.22;;;7.78;37.53
28004;BME280;15330;51.234;6.754;2023-02-28T13:13:14;102428.34;;;8.06;37.18
28004;BME280;15330;51.234;6.754;2023-02-28T13:15:41;102426.44;;;9.18;35.48
28004;BME280;15330;51.234;6.754;2023-02-28T13:18:43;102422.13;;;8.44;36.82
28004;BME280;15330;51.234;6.754;2023-02-28T13:21:22;102418.78;;;7.39;36.83
28004;BME280;15330;51.234;6.754;2023-02-28T13:26:21;102420.13;;;7.97;36.57
28004;BME280;15330;51.234;6.754;2023-02-28T13:28:58;102412.16;;;8.71;36.51
28004;BME280;15330;51.234;6.754;2023-02-28T13:31:24;102409.66;;;8.32;36.65
28004;BME280;15330;51.234;6.754;2023-02-28T13:34:13;102416.94;;;7.92;37.78
28004;BME280;15330;51.234;6.754;2023-02-28T13:36:40;102405.72;;;8.25;36.36
28004;BME280;15330;51.234;6.754;2023-02-28T13:45:20;102404.66;;;8.40;36.31
28004;BME280;15330;51.234;6.754;2023-02-28T13:58:41;102391.78;;;8.08;36.88
28004;BME280;15330;51.234;6.754;2023-02-28T14:07:25;102392.53;;;7.72;37.92
28004;BME280;15330;51.234;6.754;2023-02-28T14:09:58;102378.31;;;8.23;37.35
28004;BME280;15330;51.234;6.754;2023-02-28T14:12:57;102368.97;;;7.79;37.99
28004;BME280;15330;51.234;6.754;2023-02-28T14:17:55;102382.69;;;8.36;37.40
28004;BME280;15330;51.234;6.754;2023-02-28T14:20:22;102374.09;;;7.95;37.51
28004;BME280;15330;51.234;6.754;2023-02-28T14:22:58;102379.84;;;7.63;38.05
28004;BME280;15330;51.234;6.754;2023-02-28T14:25:44;102371.75;;;7.78;37.87
28004;BME280;15330;51.234;6.754;2023-02-28T14:30:57;102378.31;;;8.10;37.57
28004;BME280;15330;51.234;6.754;2023-02-28T14:36:33;102369.53;;;8.46;38.62
28004;BME280;15330;51.234;6.754;2023-02-28T14:41:37;102366.53;;;7.89;39.81
28004;BME280;15330;51.234;6.754;2023-02-28T14:46:45;102364.91;;;8.84;38.51
28004;BME280;15330;51.234;6.754;2023-02-28T14:49:21;102363.59;;;8.66;40.62
28004;BME280;15330;51.234;6.754;2023-02-28T14:51:49;102360.78;;;7.57;39.96
28004;BME280;15330;51.234;6.754;2023-02-28T14:54:16;102360.97;;;8.04;39.39
28004;BME280;15330;51.234;6.754;2023-02-28T14:56:49;102359.44;;;8.62;39.11
28004;BME280;15330;51.234;6.754;2023-02-28T14:59:41;102367.31;;;8.27;40.92
28004;BME280;15330;51.234;6.754;2023-02-28T15:02:29;102363.75;;;8.76;39.60
28004;BME280;15330;51.234;6.754;2023-02-28T15:05:27;102356.53;;;8.41;39.91
28004;BME280;15330;51.234;6.754;2023-02-28T15:08:25;102360.09;;;8.17;40.35
28004;BME280;15330;51.234;6.754;2023-02-28T15:10:56;102352.72;;;8.33;40.32
28004;BME280;15330;51.234;6.754;2023-02-28T15:13:23;102348.03;;;8.11;40.15
28004;BME280;15330;51.234;6.754;2023-02-28T15:16:01;102349.91;;;7.85;40.30
28004;BME280;15330;51.234;6.754;2023-02-28T15:21:00;102350.66;;;7.87;40.81